sensor_id;sensor_type;location;lat;lon;timestamp;P1;durP1;ratioP1;P2;durP2;ratioP2
58366;SDS011;57745;42.524;12.052;2022-07-29T00:01:05;3.75;;;2.40;;
58366;SDS011;57745;42.524;12.052;2022-07-29T00:03:31;4.57;;;2.25;;
58366;SDS011;57745;42.524;12.052;2022-07-29T00:05:56;2.60;;;2.15;;
58366;SDS011;57745;42.524;12.052;2022-07-29T00:08:22;4.20;;;2.38;;
58366;SDS011;57745;42.524;12.052;2022-07-29T00:10:47;4.07;;;2.60;;
58366;SDS011;57745;42.524;12.052;2022-07-29T00:13:13;5.28;;;2.50;;
58366;SDS011;57745;42.524;12.052;2022-07-29T00:15:38;4.50;;;2.33;;
58366;SDS011;57745;42.524;12.052;2022-07-29T00:18:03;2.83;;;2.33;;
58366;SDS011;57745;42.524;12.052;2022-07-29T00:20:29;3.40;;;2.60;;
58366;SDS011;57745;42.524;12.052;2022-07-29T00:22:54;4.50;;;2.50;;
58366;SDS011;57745;42.524;12.052;2022-07-29T00:25:20;4.53;;;2.05;;
58366;SDS011;57745;42.524;12.052;2022-07-29T00:27:45;5.65;;;2.50;;
58366;SDS011;57745;42.524;12.052;2022-07-29T00:30:11;3.55;;;2.28;;
58366;SDS011;57745;42.524;12.052;2022-07-29T00:32:39;5.15;;;2.50;;
58366;SDS011;57745;42.524;12.052;2022-07-29T00:35:04;3.35;;;2.20;;
58366;SDS011;57745;42.524;12.052;2022-07-29T00:37:49;3.03;;;2.30;;
58366;SDS011;57745;42.524;12.052;2022-07-29T00:40:14;2.95;;;2.13;;
58366;SDS011;57745;42.524;12.052;2022-07-29T00:45:13;4.07;;;2.40;;
58366;SDS011;57745;42.524;12.052;2022-07-29T00:47:39;2.22;;;2.03;;
58366;SDS011;57745;42.524;12.052;2022-07-29T00:50:05;4.30;;;2.17;;
58366;SDS011;57745;42.524;12.052;2022-07-29T00:52:33;3.40;;;2.63;;
58366;SDS011;57745;42.524;12.052;2022-07-29T00:55:00;4.25;;;2.45;;
58366;SDS011;57745;42.524;12.052;2022-07-29T00:57:27;4.07;;;2.42;;
58366;SDS011;57745;42.524;12.052;2022-07-29T00:59:56;3.50;;;2.17;;
58366;SDS011;57745;42.524;12.052;2022-07-29T01:02:21;4.22;;;2.60;;
58366;SDS011;57745;42.524;12.052;2022-07-29T01:04:46;2.17;;;1.90;;
58366;SDS011;57745;42.524;12.052;2022-07-29T01:07:13;3.00;;;2.22;;
58366;SDS011;57745;42.524;12.052;2022-07-29T01:09:39;4.20;;;2.45;;
58366;SDS011;57745;42.524;12.052;2022-07-29T01:12:06;4.40;;;2.25;;
58366;SDS011;57745;42.524;12.052;2022-07-29T01:14:32;3.72;;;2.33;;
58366;SDS011;57745;42.524;12.052;2022-07-29T01:17:04;4.38;;;2.30;;
58366;SDS011;57745;42.524;12.052;2022-07-29T01:28:17;3.97;;;2.25;;
58366;SDS011;57745;42.524;12.052;2022-07-29T01:30:59;2.58;;;2.17;;
58366;SDS011;57745;42.524;12.052;2022-07-29T01:33:27;2.53;;;2.08;;
58366;SDS011;57745;42.524;12.052;2022-07-29T01:36:16;4.25;;;2.10;;
58366;SDS011;57745;42.524;12.052;2022-07-29T01:38:47;3.35;;;2.30;;
58366;SDS011;57745;42.524;12.052;2022-07-29T01:41:22;3.35;;;2.22;;
58366;SDS011;57745;42.524;12.052;2022-07-29T01:43:49;3.20;;;2.55;;
58366;SDS011;57745;42.524;12.052;2022-07-29T01:46:31;4.22;;;2.60;;
58366;SDS011;57745;42.524;12.052;2022-07-29T01:51:31;2.80;;;2.10;;
58366;SDS011;57745;42.524;12.052;2022-07-29T01:56:31;4.13;;;2.30;;
58366;SDS011;57745;42.524;12.052;2022-07-29T01:58:58;3.33;;;2.00;;
58366;SDS011;57745;42.524;12.052;2022-07-29T02:01:25;6.20;;;2.30;;
58366;SDS011;57745;42.524;12.052;2022-07-29T02:03:52;4.28;;;2.38;;
58366;SDS011;57745;42.524;12.052;2022-07-29T02:06:21;3.05;;;2.20;;
58366;SDS011;57745;42.524;12.052;2022-07-29T02:08:48;3.35;;;2.10;;
58366;SDS011;57745;42.524;12.052;2022-07-29T02:11:17;3.63;;;2.45;;
58366;SDS011;57745;42.524;12.052;2022-07-29T02:13:43;3.30;;;2.13;;
58366;SDS011;57745;42.524;12.052;2022-07-29T02:16:10;4.45;;;2.30;;
58366;SDS011;57745;42.524;12.052;2022-07-29T02:18:37;3.20;;;1.90;;
58366;SDS011;57745;42.524;12.052;2022-07-29T02:21:05;2.00;;;1.80;;
58366;SDS011;57745;42.524;12.052;2022-07-29T02:23:32;4.15;;;2.25;;
58366;SDS011;57745;42.524;12.052;2022-07-29T02:26:01;4.28;;;2.33;;
58366;SDS011;57745;42.524;12.052;2022-07-29T02:28:28;3.55;;;2.33;;
58366;SDS011;57745;42.524;12.052;2022-07-29T02:30:57;4.70;;;2.88;;
58366;SDS011;57745;42.524;12.052;2022-07-29T02:33:25;4.88;;;2.50;;
58366;SDS011;57745;42.524;12.052;2022-07-29T02:35:52;5.15;;;2.38;;
58366;SDS011;57745;42.524;12.052;2022-07-29T02:38:20;2.72;;;2.30;;
58366;SDS011;57745;42.524;12.052;2022-07-29T02:41:08;4.80;;;2.20;;
58366;SDS011;57745;42.524;12.052;2022-07-29T02:43:37;5.20;;;2.60;;
58366;SDS011;57745;42.524;12.052;2022-07-29T02:46:04;3.80;;;2.40;;
58366;SDS011;57745;42.524;12.052;2022-07-29T02:48:36;5.10;;;2.30;;
58366;SDS011;57745;42.524;12.052;2022-07-29T02:51:13;3.67;;;2.58;;
58366;SDS011;57745;42.524;12.052;2022-07-29T02:53:44;3.65;;;2.05;;
58366;SDS011;57745;42.524;12.052;2022-07-29T02:56:16;3.80;;;2.50;;
58366;SDS011;57745;42.524;12.052;2022-07-29T02:58:53;4.88;;;2.65;;
58366;SDS011;57745;42.524;12.052;2022-07-29T03:01:22;3.20;;;2.10;;
58366;SDS011;57745;42.524;12.052;2022-07-29T03:03:49;4.65;;;2.00;;
58366;SDS011;57745;42.524;12.052;2022-07-29T03:06:18;4.63;;;2.38;;
58366;SDS011;57745;42.524;12.052;2022-07-29T03:08:45;3.53;;;2.17;;
58366;SDS011;57745;42.524;12.052;2022-07-29T03:11:12;4.60;;;2.30;;
58366;SDS011;57745;42.524;12.052;2022-07-29T03:13:38;3.35;;;2.13;;
58366;SDS011;57745;42.524;12.052;2022-07-29T03:16:05;4.18;;;2.40;;
58366;SDS011;57745;42.524;12.052;2022-07-29T03:21:54;4.57;;;2.97;;
58366;SDS011;57745;42.524;12.052;2022-07-29T03:24:31;3.90;;;2.30;;
58366;SDS011;57745;42.524;12.052;2022-07-29T03:26:58;4.28;;;2.40;;
58366;SDS011;57745;42.524;12.052;2022-07-29T03:29:25;4.32;;;2.03;;
58366;SDS011;57745;42.524;12.052;2022-07-29T03:31:51;4.15;;;2.53;;
58366;SDS011;57745;42.524;12.052;2022-07-29T03:34:16;3.70;;;2.30;;
58366;SDS011;57745;42.524;12.052;2022-07-29T03:36:43;3.45;;;2.45;;
58366;SDS011;57745;42.524;12.052;2022-07-29T03:39:08;3.78;;;2.17;;
58366;SDS011;57745;42.524;12.052;2022-07-29T03:41:36;4.47;;;2.70;;
58366;SDS011;57745;42.524;12.052;2022-07-29T03:44:04;6.57;;;2.55;;
58366;SDS011;57745;42.524;12.052;2022-07-29T03:46:32;4.88;;;2.70;;
58366;SDS011;57745;42.524;12.052;2022-07-29T03:49:01;5.43;;;2.60;;
58366;SDS011;57745;42.524;12.052;2022-07-29T03:51:29;4.90;;;2.53;;
58366;SDS011;57745;42.524;12.052;2022-07-29T03:53:55;3.25;;;2.75;;
58366;SDS011;57745;42.524;12.052;2022-07-29T03:56:22;4.18;;;2.42;;
58366;SDS011;57745;42.524;12.052;2022-07-29T03:58:49;3.78;;;2.30;;
58366;SDS011;57745;42.524;12.052;2022-07-29T04:01:16;3.60;;;2.35;;
58366;SDS011;57745;42.524;12.052;2022-07-29T04:03:43;5.50;;;2.85;;
58366;SDS011;57745;42.524;12.052;2022-07-29T04:06:12;2.67;;;2.25;;
58366;SDS011;57745;42.524;12.052;2022-07-29T04:08:37;3.78;;;2.33;;
58366;SDS011;57745;42.524;12.052;2022-07-29T04:11:04;4.60;;;2.63;;
58366;SDS011;57745;42.524;12.052;2022-07-29T04:13:31;3.72;;;2.08;;
58366;SDS011;57745;42.524;12.052;2022-07-29T04:15:57;7.32;;;2.67;;
58366;SDS011;57745;42.524;12.052;2022-07-29T04:18:23;3.42;;;2.45;;
58366;SDS011;57745;42.524;12.052;2022-07-29T04:20:49;3.92;;;2.50;;
58366;SDS011;57745;42.524;12.052;2022-07-29T04:23:14;3.88;;;2.58;;
58366;SDS011;57745;42.524;12.052;2022-07-29T04:25:41;5.15;;;2.55;;
58366;SDS011;57745;42.524;12.052;2022-07-29T04:28:08;3.80;;;2.30;;
58366;SDS011;57745;42.524;12.052;2022-07-29T04:30:36;3.90;;;2.40;;
58366;SDS011;57745;42.524;12.052;2022-07-29T04:33:03;3.47;;;2.80;;
58366;SDS011;57745;42.524;12.052;2022-07-29T04:35:30;4.90;;;2.85;;
58366;SDS011;57745;42.524;12.052;2022-07-29T04:37:55;5.32;;;2.63;;
58366;SDS011;57745;42.524;12.052;2022-07-29T04:40:21;5.15;;;2.90;;
58366;SDS011;57745;42.524;12.052;2022-07-29T04:42:47;4.55;;;2.30;;
58366;SDS011;57745;42.524;12.052;2022-07-29T04:45:12;4.95;;;2.70;;
58366;SDS011;57745;42.524;12.052;2022-07-29T04:47:38;5.32;;;2.90;;
58366;SDS011;57745;42.524;12.052;2022-07-29T04:50:04;6.53;;;2.67;;
58366;SDS011;57745;42.524;12.052;2022-07-29T04:52:31;3.83;;;2.50;;
58366;SDS011;57745;42.524;12.052;2022-07-29T04:54:56;4.80;;;2.58;;
58366;SDS011;57745;42.524;12.052;2022-07-29T04:57:22;5.65;;;2.42;;
58366;SDS011;57745;42.524;12.052;2022-07-29T04:59:47;4.13;;;2.40;;
58366;SDS011;57745;42.524;12.052;2022-07-29T05:02:13;4.22;;;3.25;;
58366;SDS011;57745;42.524;12.052;2022-07-29T05:04:39;4.55;;;2.72;;
58366;SDS011;57745;42.524;12.052;2022-07-29T05:07:04;6.10;;;2.80;;
58366;SDS011;57745;42.524;12.052;2022-07-29T05:09:29;6.15;;;2.60;;
58366;SDS011;57745;42.524;12.052;2022-07-29T05:11:57;6.25;;;2.67;;
58366;SDS011;57745;42.524;12.052;2022-07-29T05:14:22;6.13;;;2.65;;
58366;SDS011;57745;42.524;12.052;2022-07-29T05:16:48;3.05;;;2.53;;
58366;SDS011;57745;42.524;12.052;2022-07-29T05:19:16;4.55;;;2.88;;
58366;SDS011;57745;42.524;12.052;2022-07-29T05:21:41;4.18;;;3.17;;
58366;SDS011;57745;42.524;12.052;2022-07-29T05:24:07;5.20;;;2.70;;
58366;SDS011;57745;42.524;12.052;2022-07-29T05:26:32;6.20;;;2.78;;
58366;SDS011;57745;42.524;12.052;2022-07-29T05:28:58;4.95;;;2.72;;
58366;SDS011;57745;42.524;12.052;2022-07-29T05:31:24;7.75;;;2.40;;
58366;SDS011;57745;42.524;12.052;2022-07-29T05:33:49;6.70;;;2.97;;
58366;SDS011;57745;42.524;12.052;2022-07-29T05:36:15;5.40;;;2.63;;
58366;SDS011;57745;42.524;12.052;2022-07-29T05:38:40;4.95;;;2.50;;
58366;SDS011;57745;42.524;12.052;2022-07-29T05:41:06;4.47;;;2.80;;
58366;SDS011;57745;42.524;12.052;2022-07-29T05:43:32;6.28;;;2.80;;
58366;SDS011;57745;42.524;12.052;2022-07-29T05:45:57;6.82;;;3.35;;
58366;SDS011;57745;42.524;12.052;2022-07-29T05:48:23;4.80;;;3.38;;
58366;SDS011;57745;42.524;12.052;2022-07-29T05:50:49;4.65;;;2.88;;
58366;SDS011;57745;42.524;12.052;2022-07-29T05:53:14;6.47;;;3.15;;
58366;SDS011;57745;42.524;12.052;2022-07-29T05:55:41;4.40;;;2.70;;
58366;SDS011;57745;42.524;12.052;2022-07-29T05:58:07;4.93;;;2.50;;
58366;SDS011;57745;42.524;12.052;2022-07-29T06:00:32;7.15;;;3.40;;
58366;SDS011;57745;42.524;12.052;2022-07-29T06:02:58;4.75;;;3.40;;
58366;SDS011;57745;42.524;12.052;2022-07-29T06:05:23;5.65;;;3.10;;
58366;SDS011;57745;42.524;12.052;2022-07-29T06:07:49;5.22;;;3.08;;
58366;SDS011;57745;42.524;12.052;2022-07-29T06:10:14;6.18;;;3.42;;
58366;SDS011;57745;42.524;12.052;2022-07-29T06:12:39;6.30;;;3.00;;
58366;SDS011;57745;42.524;12.052;2022-07-29T06:15:05;5.80;;;3.03;;
58366;SDS011;57745;42.524;12.052;2022-07-29T06:17:31;5.93;;;3.40;;
58366;SDS011;57745;42.524;12.052;2022-07-29T06:19:57;7.30;;;3.35;;
58366;SDS011;57745;42.524;12.052;2022-07-29T06:22:22;5.43;;;3.20;;
58366;SDS011;57745;42.524;12.052;2022-07-29T06:24:48;4.35;;;3.15;;
58366;SDS011;57745;42.524;12.052;2022-07-29T06:27:14;7.38;;;3.40;;
58366;SDS011;57745;42.524;12.052;2022-07-29T06:29:41;6.78;;;3.05;;
58366;SDS011;57745;42.524;12.052;2022-07-29T06:32:06;5.95;;;3.25;;
58366;SDS011;57745;42.524;12.052;2022-07-29T06:34:34;4.90;;;3.35;;
58366;SDS011;57745;42.524;12.052;2022-07-29T06:36:59;5.05;;;3.35;;
58366;SDS011;57745;42.524;12.052;2022-07-29T06:39:25;3.13;;;2.80;;
58366;SDS011;57745;42.524;12.052;2022-07-29T06:41:50;3.70;;;2.85;;
58366;SDS011;57745;42.524;12.052;2022-07-29T06:44:16;5.75;;;3.22;;
58366;SDS011;57745;42.524;12.052;2022-07-29T06:46:43;4.32;;;3.08;;
58366;SDS011;57745;42.524;12.052;2022-07-29T06:49:09;4.88;;;3.00;;
58366;SDS011;57745;42.524;12.052;2022-07-29T06:51:34;5.53;;;3.30;;
58366;SDS011;57745;42.524;12.052;2022-07-29T06:54:01;4.97;;;3.10;;
58366;SDS011;57745;42.524;12.052;2022-07-29T06:56:28;6.53;;;3.15;;
58366;SDS011;57745;42.524;12.052;2022-07-29T06:58:54;4.13;;;2.72;;
58366;SDS011;57745;42.524;12.052;2022-07-29T07:01:19;5.85;;;3.20;;
58366;SDS011;57745;42.524;12.052;2022-07-29T07:03:45;6.20;;;3.17;;
58366;SDS011;57745;42.524;12.052;2022-07-29T07:06:11;3.28;;;2.97;;
58366;SDS011;57745;42.524;12.052;2022-07-29T07:08:37;6.05;;;2.88;;
58366;SDS011;57745;42.524;12.052;2022-07-29T07:11:02;5.78;;;2.75;;
58366;SDS011;57745;42.524;12.052;2022-07-29T07:13:28;3.20;;;2.70;;
58366;SDS011;57745;42.524;12.052;2022-07-29T07:15:59;3.67;;;2.47;;
58366;SDS011;57745;42.524;12.052;2022-07-29T07:18:24;5.22;;;3.03;;
58366;SDS011;57745;42.524;12.052;2022-07-29T07:20:49;3.58;;;2.70;;
58366;SDS011;57745;42.524;12.052;2022-07-29T07:23:15;3.65;;;2.92;;
58366;SDS011;57745;42.524;12.052;2022-07-29T07:25:40;4.95;;;3.17;;
58366;SDS011;57745;42.524;12.052;2022-07-29T07:28:07;5.20;;;2.95;;
58366;SDS011;57745;42.524;12.052;2022-07-29T07:30:32;6.05;;;2.97;;
58366;SDS011;57745;42.524;12.052;2022-07-29T07:32:57;4.93;;;3.10;;
58366;SDS011;57745;42.524;12.052;2022-07-29T07:35:24;8.27;;;3.20;;
58366;SDS011;57745;42.524;12.052;2022-07-29T07:37:51;4.47;;;3.10;;
58366;SDS011;57745;42.524;12.052;2022-07-29T07:40:16;5.70;;;2.72;;
58366;SDS011;57745;42.524;12.052;2022-07-29T07:42:42;3.03;;;2.72;;
58366;SDS011;57745;42.524;12.052;2022-07-29T07:45:08;3.72;;;2.65;;
58366;SDS011;57745;42.524;12.052;2022-07-29T07:47:37;4.78;;;3.40;;
58366;SDS011;57745;42.524;12.052;2022-07-29T07:50:04;4.40;;;2.45;;
58366;SDS011;57745;42.524;12.052;2022-07-29T07:52:32;6.70;;;2.90;;
58366;SDS011;57745;42.524;12.052;2022-07-29T07:54:58;4.20;;;3.40;;
58366;SDS011;57745;42.524;12.052;2022-07-29T07:57:23;3.63;;;3.10;;
58366;SDS011;57745;42.524;12.052;2022-07-29T07:59:48;3.38;;;2.75;;
58366;SDS011;57745;42.524;12.052;2022-07-29T08:02:14;4.57;;;3.05;;
58366;SDS011;57745;42.524;12.052;2022-07-29T08:04:39;6.10;;;3.20;;
58366;SDS011;57745;42.524;12.052;2022-07-29T08:07:05;5.13;;;2.92;;
58366;SDS011;57745;42.524;12.052;2022-07-29T08:09:32;5.13;;;3.05;;
58366;SDS011;57745;42.524;12.052;2022-07-29T08:11:59;3.47;;;2.65;;
58366;SDS011;57745;42.524;12.052;2022-07-29T08:14:27;6.03;;;3.10;;
58366;SDS011;57745;42.524;12.052;2022-07-29T08:16:52;4.80;;;2.97;;
58366;SDS011;57745;42.524;12.052;2022-07-29T08:19:18;5.60;;;3.40;;
58366;SDS011;57745;42.524;12.052;2022-07-29T08:21:44;4.40;;;2.63;;
58366;SDS011;57745;42.524;12.052;2022-07-29T08:24:09;3.13;;;2.72;;
58366;SDS011;57745;42.524;12.052;2022-07-29T08:26:53;4.10;;;2.92;;
58366;SDS011;57745;42.524;12.052;2022-07-29T08:29:19;6.05;;;3.15;;
58366;SDS011;57745;42.524;12.052;2022-07-29T08:31:45;4.35;;;3.10;;
58366;SDS011;57745;42.524;12.052;2022-07-29T08:34:10;4.38;;;2.83;;
58366;SDS011;57745;42.524;12.052;2022-07-29T08:36:37;6.20;;;3.20;;
58366;SDS011;57745;42.524;12.052;2022-07-29T08:39:03;5.18;;;2.83;;
58366;SDS011;57745;42.524;12.052;2022-07-29T08:41:30;4.05;;;2.90;;
58366;SDS011;57745;42.524;12.052;2022-07-29T08:43:56;4.65;;;2.80;;
58366;SDS011;57745;42.524;12.052;2022-07-29T08:46:22;4.82;;;2.90;;
58366;SDS011;57745;42.524;12.052;2022-07-29T08:48:48;4.53;;;3.20;;
58366;SDS011;57745;42.524;12.052;2022-07-29T08:51:15;10.27;;;3.28;;
58366;SDS011;57745;42.524;12.052;2022-07-29T08:53:42;8.00;;;2.85;;
58366;SDS011;57745;42.524;12.052;2022-07-29T08:56:12;7.60;;;3.28;;
58366;SDS011;57745;42.524;12.052;2022-07-29T08:58:39;4.80;;;2.92;;
58366;SDS011;57745;42.524;12.052;2022-07-29T09:01:05;4.93;;;3.58;;
58366;SDS011;57745;42.524;12.052;2022-07-29T09:03:32;5.80;;;3.08;;
58366;SDS011;57745;42.524;12.052;2022-07-29T09:06:01;7.30;;;3.03;;
58366;SDS011;57745;42.524;12.052;2022-07-29T09:08:28;5.60;;;3.50;;
58366;SDS011;57745;42.524;12.052;2022-07-29T09:10:55;5.97;;;3.25;;
58366;SDS011;57745;42.524;12.052;2022-07-29T09:13:21;6.70;;;3.50;;
58366;SDS011;57745;42.524;12.052;2022-07-29T09:15:47;4.97;;;3.25;;
58366;SDS011;57745;42.524;12.052;2022-07-29T09:18:32;4.68;;;3.28;;
58366;SDS011;57745;42.524;12.052;2022-07-29T09:21:01;6.82;;;3.35;;
58366;SDS011;57745;42.524;12.052;2022-07-29T09:26:30;5.22;;;2.95;;
58366;SDS011;57745;42.524;12.052;2022-07-29T09:28:57;5.43;;;3.13;;
58366;SDS011;57745;42.524;12.052;2022-07-29T09:31:33;6.72;;;3.15;;
58366;SDS011;57745;42.524;12.052;2022-07-29T09:34:00;4.47;;;2.97;;
58366;SDS011;57745;42.524;12.052;2022-07-29T09:36:27;4.90;;;3.13;;
58366;SDS011;57745;42.524;12.052;2022-07-29T09:38:59;7.40;;;3.20;;
58366;SDS011;57745;42.524;12.052;2022-07-29T09:41:29;4.07;;;3.15;;
58366;SDS011;57745;42.524;12.052;2022-07-29T09:43:56;5.10;;;3.22;;
58366;SDS011;57745;42.524;12.052;2022-07-29T09:46:23;6.03;;;3.28;;
58366;SDS011;57745;42.524;12.052;2022-07-29T09:49:05;7.38;;;3.20;;
58366;SDS011;57745;42.524;12.052;2022-07-29T09:53:57;4.47;;;3.20;;
58366;SDS011;57745;42.524;12.052;2022-07-29T09:56:37;5.35;;;3.00;;
58366;SDS011;57745;42.524;12.052;2022-07-29T09:59:06;5.93;;;3.30;;
58366;SDS011;57745;42.524;12.052;2022-07-29T10:01:33;6.38;;;3.25;;
58366;SDS011;57745;42.524;12.052;2022-07-29T10:04:01;3.90;;;3.13;;
58366;SDS011;57745;42.524;12.052;2022-07-29T10:06:27;6.97;;;3.17;;
58366;SDS011;57745;42.524;12.052;2022-07-29T10:08:53;5.13;;;3.08;;
58366;SDS011;57745;42.524;12.052;2022-07-29T10:11:19;5.22;;;3.30;;
58366;SDS011;57745;42.524;12.052;2022-07-29T10:13:45;9.30;;;3.63;;
58366;SDS011;57745;42.524;12.052;2022-07-29T10:16:13;5.65;;;3.83;;
58366;SDS011;57745;42.524;12.052;2022-07-29T10:18:40;7.22;;;3.45;;
58366;SDS011;57745;42.524;12.052;2022-07-29T10:21:07;5.80;;;3.35;;
58366;SDS011;57745;42.524;12.052;2022-07-29T10:23:33;5.57;;;3.15;;
58366;SDS011;57745;42.524;12.052;2022-07-29T10:26:00;8.70;;;3.50;;
58366;SDS011;57745;42.524;12.052;2022-07-29T10:28:26;8.43;;;3.35;;
58366;SDS011;57745;42.524;12.052;2022-07-29T10:30:52;3.75;;;3.22;;
58366;SDS011;57745;42.524;12.052;2022-07-29T10:42:24;6.53;;;3.38;;
58366;SDS011;57745;42.524;12.052;2022-07-29T10:44:53;8.10;;;3.35;;
58366;SDS011;57745;42.524;12.052;2022-07-29T10:47:23;5.35;;;3.17;;
58366;SDS011;57745;42.524;12.052;2022-07-29T10:52:24;4.35;;;3.00;;
58366;SDS011;57745;42.524;12.052;2022-07-29T10:55:21;4.78;;;3.60;;
58366;SDS011;57745;42.524;12.052;2022-07-29T10:58:12;4.85;;;3.20;;
58366;SDS011;57745;42.524;12.052;2022-07-29T11:00:39;7.22;;;3.30;;
58366;SDS011;57745;42.524;12.052;2022-07-29T11:03:05;5.75;;;3.17;;
58366;SDS011;57745;42.524;12.052;2022-07-29T11:05:30;8.13;;;3.35;;
58366;SDS011;57745;42.524;12.052;2022-07-29T11:08:22;6.15;;;3.58;;
58366;SDS011;57745;42.524;12.052;2022-07-29T11:10:51;8.50;;;7.22;;
58366;SDS011;57745;42.524;12.052;2022-07-29T11:16:11;10.65;;;5.05;;
58366;SDS011;57745;42.524;12.052;2022-07-29T11:19:12;10.48;;;3.92;;
58366;SDS011;57745;42.524;12.052;2022-07-29T11:21:39;7.13;;;4.45;;
58366;SDS011;57745;42.524;12.052;2022-07-29T11:24:12;6.18;;;4.43;;
58366;SDS011;57745;42.524;12.052;2022-07-29T11:26:43;6.05;;;4.60;;
58366;SDS011;57745;42.524;12.052;2022-07-29T11:31:50;7.65;;;4.25;;
58366;SDS011;57745;42.524;12.052;2022-07-29T11:34:24;5.97;;;4.18;;
58366;SDS011;57745;42.524;12.052;2022-07-29T11:39:36;5.47;;;4.32;;
58366;SDS011;57745;42.524;12.052;2022-07-29T11:44:57;6.45;;;4.20;;
58366;SDS011;57745;42.524;12.052;2022-07-29T11:47:23;5.65;;;4.10;;
58366;SDS011;57745;42.524;12.052;2022-07-29T11:49:55;6.38;;;4.00;;
58366;SDS011;57745;42.524;12.052;2022-07-29T11:52:22;5.55;;;3.97;;
58366;SDS011;57745;42.524;12.052;2022-07-29T11:54:57;5.03;;;3.75;;
58366;SDS011;57745;42.524;12.052;2022-07-29T11:57:26;5.53;;;4.00;;
58366;SDS011;57745;42.524;12.052;2022-07-29T11:59:53;5.45;;;3.97;;
58366;SDS011;57745;42.524;12.052;2022-07-29T12:02:20;4.32;;;3.72;;
58366;SDS011;57745;42.524;12.052;2022-07-29T12:07:25;4.82;;;3.30;;
58366;SDS011;57745;42.524;12.052;2022-07-29T12:09:52;4.32;;;3.15;;
58366;SDS011;57745;42.524;12.052;2022-07-29T12:12:18;5.90;;;3.53;;
58366;SDS011;57745;42.524;12.052;2022-07-29T12:14:44;4.10;;;3.70;;
58366;SDS011;57745;42.524;12.052;2022-07-29T12:17:31;5.53;;;3.42;;
58366;SDS011;57745;42.524;12.052;2022-07-29T12:19:59;4.45;;;3.58;;
58366;SDS011;57745;42.524;12.052;2022-07-29T12:22:28;4.18;;;3.35;;
58366;SDS011;57745;42.524;12.052;2022-07-29T12:24:55;3.92;;;3.35;;
58366;SDS011;57745;42.524;12.052;2022-07-29T12:27:21;4.63;;;3.65;;
58366;SDS011;57745;42.524;12.052;2022-07-29T12:29:59;7.80;;;3.33;;
58366;SDS011;57745;42.524;12.052;2022-07-29T12:32:34;4.97;;;3.78;;
58366;SDS011;57745;42.524;12.052;2022-07-29T12:35:04;4.75;;;3.60;;
58366;SDS011;57745;42.524;12.052;2022-07-29T12:37:33;6.13;;;3.33;;
58366;SDS011;57745;42.524;12.052;2022-07-29T12:40:00;3.30;;;3.00;;
58366;SDS011;57745;42.524;12.052;2022-07-29T12:42:28;3.70;;;3.33;;
58366;SDS011;57745;42.524;12.052;2022-07-29T12:44:53;5.20;;;3.47;;
58366;SDS011;57745;42.524;12.052;2022-07-29T12:47:19;4.07;;;2.85;;
58366;SDS011;57745;42.524;12.052;2022-07-29T12:49:46;3.47;;;3.03;;
58366;SDS011;57745;42.524;12.052;2022-07-29T12:52:24;3.47;;;2.88;;
58366;SDS011;57745;42.524;12.052;2022-07-29T12:54:57;3.20;;;2.90;;
58366;SDS011;57745;42.524;12.052;2022-07-29T12:57:22;3.08;;;2.30;;
58366;SDS011;57745;42.524;12.052;2022-07-29T13:00:04;3.15;;;2.67;;
58366;SDS011;57745;42.524;12.052;2022-07-29T13:02:35;2.90;;;2.60;;
58366;SDS011;57745;42.524;12.052;2022-07-29T13:05:02;3.15;;;2.72;;
58366;SDS011;57745;42.524;12.052;2022-07-29T13:07:30;2.92;;;2.60;;
58366;SDS011;57745;42.524;12.052;2022-07-29T13:10:18;3.55;;;2.72;;
58366;SDS011;57745;42.524;12.052;2022-07-29T13:15:33;4.22;;;2.78;;
58366;SDS011;57745;42.524;12.052;2022-07-29T13:17:58;5.88;;;3.08;;
58366;SDS011;57745;42.524;12.052;2022-07-29T13:20:25;3.75;;;2.88;;
58366;SDS011;57745;42.524;12.052;2022-07-29T13:22:54;7.13;;;3.33;;
58366;SDS011;57745;42.524;12.052;2022-07-29T13:25:25;5.55;;;2.90;;
58366;SDS011;57745;42.524;12.052;2022-07-29T13:27:56;3.72;;;2.88;;
58366;SDS011;57745;42.524;12.052;2022-07-29T13:30:23;4.68;;;2.88;;
58366;SDS011;57745;42.524;12.052;2022-07-29T13:32:50;5.05;;;2.78;;
58366;SDS011;57745;42.524;12.052;2022-07-29T13:35:19;3.60;;;3.15;;
58366;SDS011;57745;42.524;12.052;2022-07-29T13:37:46;3.35;;;3.03;;
58366;SDS011;57745;42.524;12.052;2022-07-29T13:40:12;4.15;;;3.00;;
58366;SDS011;57745;42.524;12.052;2022-07-29T13:42:38;4.40;;;3.08;;
58366;SDS011;57745;42.524;12.052;2022-07-29T13:45:04;4.72;;;3.10;;
58366;SDS011;57745;42.524;12.052;2022-07-29T13:47:31;4.82;;;2.90;;
58366;SDS011;57745;42.524;12.052;2022-07-29T13:49:57;4.97;;;3.30;;
58366;SDS011;57745;42.524;12.052;2022-07-29T13:52:22;7.68;;;3.17;;
58366;SDS011;57745;42.524;12.052;2022-07-29T13:54:47;6.63;;;2.97;;
58366;SDS011;57745;42.524;12.052;2022-07-29T13:57:13;7.78;;;3.35;;
58366;SDS011;57745;42.524;12.052;2022-07-29T13:59:40;4.05;;;3.20;;
58366;SDS011;57745;42.524;12.052;2022-07-29T14:02:06;7.15;;;3.10;;
58366;SDS011;57745;42.524;12.052;2022-07-29T14:04:32;7.40;;;3.75;;
58366;SDS011;57745;42.524;12.052;2022-07-29T14:06:58;8.23;;;3.05;;
58366;SDS011;57745;42.524;12.052;2022-07-29T14:09:24;5.90;;;3.00;;
58366;SDS011;57745;42.524;12.052;2022-07-29T14:11:49;7.50;;;2.95;;
58366;SDS011;57745;42.524;12.052;2022-07-29T14:14:16;6.28;;;2.75;;
58366;SDS011;57745;42.524;12.052;2022-07-29T14:16:41;6.03;;;2.50;;
58366;SDS011;57745;42.524;12.052;2022-07-29T14:19:07;5.70;;;2.67;;
58366;SDS011;57745;42.524;12.052;2022-07-29T14:21:33;7.13;;;2.70;;
58366;SDS011;57745;42.524;12.052;2022-07-29T14:23:59;5.68;;;3.03;;
58366;SDS011;57745;42.524;12.052;2022-07-29T14:26:25;5.57;;;2.85;;
58366;SDS011;57745;42.524;12.052;2022-07-29T14:28:50;5.45;;;3.08;;
58366;SDS011;57745;42.524;12.052;2022-07-29T14:31:16;6.07;;;3.08;;
58366;SDS011;57745;42.524;12.052;2022-07-29T14:33:41;4.82;;;2.83;;
58366;SDS011;57745;42.524;12.052;2022-07-29T14:36:07;4.13;;;2.95;;
58366;SDS011;57745;42.524;12.052;2022-07-29T14:38:34;6.07;;;3.00;;
58366;SDS011;57745;42.524;12.052;2022-07-29T14:41:00;4.60;;;2.83;;
58366;SDS011;57745;42.524;12.052;2022-07-29T14:43:25;6.05;;;2.80;;
58366;SDS011;57745;42.524;12.052;2022-07-29T14:45:51;5.00;;;2.60;;
58366;SDS011;57745;42.524;12.052;2022-07-29T14:48:16;4.25;;;3.25;;
58366;SDS011;57745;42.524;12.052;2022-07-29T14:50:42;4.47;;;2.72;;
58366;SDS011;57745;42.524;12.052;2022-07-29T14:53:07;5.60;;;2.85;;
58366;SDS011;57745;42.524;12.052;2022-07-29T14:55:33;6.43;;;2.88;;
58366;SDS011;57745;42.524;12.052;2022-07-29T14:57:58;5.28;;;2.90;;
58366;SDS011;57745;42.524;12.052;2022-07-29T15:00:24;5.15;;;2.70;;
58366;SDS011;57745;42.524;12.052;2022-07-29T15:02:50;4.93;;;2.75;;
58366;SDS011;57745;42.524;12.052;2022-07-29T15:05:15;7.15;;;2.55;;
58366;SDS011;57745;42.524;12.052;2022-07-29T15:07:41;3.85;;;2.90;;
58366;SDS011;57745;42.524;12.052;2022-07-29T15:10:06;6.25;;;2.78;;
58366;SDS011;57745;42.524;12.052;2022-07-29T15:12:32;9.40;;;2.83;;
58366;SDS011;57745;42.524;12.052;2022-07-29T15:14:58;4.05;;;2.50;;
58366;SDS011;57745;42.524;12.052;2022-07-29T15:17:24;6.60;;;2.70;;
58366;SDS011;57745;42.524;12.052;2022-07-29T15:19:50;6.20;;;2.55;;
58366;SDS011;57745;42.524;12.052;2022-07-29T15:22:15;4.20;;;3.05;;
58366;SDS011;57745;42.524;12.052;2022-07-29T15:24:41;5.32;;;2.63;;
58366;SDS011;57745;42.524;12.052;2022-07-29T15:27:07;4.97;;;2.55;;
58366;SDS011;57745;42.524;12.052;2022-07-29T15:29:32;8.07;;;2.90;;